METAR stanice u blizini

 

LYBE - Beograd / Surčin, Srbija
Ažurirano: 04/04/2020 07:30
Partly Cloudy
Partly Cloudy
 Pravac vetra ZJZ
Vetar: ZJZ 7 km/h
Temperatura: 3°C
Osećaj hladnoće: 1°C
Tačka rose: -1°C
Vlažnost: 75%
Pritisak: 1018 hPa
Oblaci: Partly Cloudy
Vidljivost: 7 km
2020/04/04 05:30 LYBE 040530Z 25004KT 7000 NSC 03/M01 Q1018 NOSIG
LYBT - Beograd / Batajnica, Srbija
Ažurirano: 04/04/2020 07:30
Vedro
Vedro
 Pravac vetra varies
Vetar: varies 2 km/h
Temperatura: 1°C
Tačka rose: -2°C
Vlažnost: 81%
Pritisak: 1018 hPa
Pregled: Vedro
Vidljivost: greater than 10 km
2020/04/04 05:30 LYBT 040530Z VRB01KT CAVOK 01/M02 Q1018 NOSIG
LYVR - Vršac, Srbija
Ažurirano: 04/04/2020 07:30
Vedro
Vedro
 Pravac vetra calm
Vetar: Tišina
Temperatura: 1°C
Tačka rose: -1°C
Vlažnost: 87%
Pritisak: 1017 hPa
Pregled: Vedro
Vidljivost: greater than 10 km
2020/04/04 05:30 LYVR 040530Z 00000KT CAVOK 01/M01 Q1017 NOSIG
 
LYKV - Lađevci, Srbija
Ažurirano: 04/04/2020 07:30
Vedro
Vedro
 Pravac vetra varies
Vetar: varies 2 km/h
Temperatura: 5°C
Tačka rose: 5°C
Vlažnost: 100%
Pritisak: 1018 hPa
Pregled: Vedro
Vidljivost: greater than 10 km
2020/04/04 05:30 LYKV 040530Z VRB01KT CAVOK 05/05 Q1018 NOSIG
LYNI - Niš, Srbija
Ažurirano: 04/04/2020 07:30
Few Clouds
Few Clouds
 Pravac vetra SSZ
Vetar: SSZ 20 km/h
Temperatura: 9°C
Osećaj hladnoće: 6°C
Tačka rose: 0°C
Vlažnost: 54%
Pritisak: 1016 hPa
Oblaci: Few Clouds
Vidljivost: 10 km
Cloud details: Few Clouds 1219 m
2020/04/04 05:30 LYNI 040530Z 34011KT 9999 FEW040 09/M00 Q1016 NOSIG
BKPR - Priština, Srbija
Ažurirano: 04/04/2020 08:00
Slaba kiša, Pretežno oblačno
Slaba kiša, Pretežno oblačno
 Pravac vetra S
Vetar: S 7 km/h
Temperatura: 6°C
Osećaj hladnoće: 4°C
Tačka rose: 2°C
Vlažnost: 76%
Pritisak: 1016 hPa
Pregled: Light Rain
Oblaci: Mostly Cloudy
Vidljivost: 7 km
Cloud details: Partly Cloudy 914 m
Mostly Cloudy 1524 m
2020/04/04 06:00 BKPR 040600Z 01004KT 7000 -RA SCT030 BKN050 06/02 Q1016 NOSIG
 
LHPP - Pecs / Pogany, Hungary
Ažurirano: 04/04/2020 07:15
Vedro
Vedro
 Pravac vetra SSZ
Vetar: SSZ 17 km/h
Temperatura: 6°C
Osećaj hladnoće: 3°C
Tačka rose: -2°C
Vlažnost: 57%
Pritisak: 1019 hPa
Pregled: Vedro
Vidljivost: greater than 10 km
2020/04/04 05:15 LHPP 040515Z 34009KT CAVOK 06/M02 Q1019
LHUD - Szeged, Hungary
Ažurirano: 04/07/2019 01:45
NOT Current
Vedro
Vedro
 Pravac vetra S
Vetar: S 7 km/h
Temperatura: 18°C
Tačka rose: 13°C
Vlažnost: 73%
Pritisak: 1019 hPa
Pregled: Vedro
Vidljivost: greater than 10 km
2019/07/03 23:45 LHUD 032345Z 35004KT CAVOK 18/13 Q1019
LRTR - Timisoara, Romania
Ažurirano: 04/04/2020 07:30
Vedro
Vedro
 Pravac vetra SSZ
Vetar: SSZ 7 km/h
Temperatura: 4°C
Osećaj hladnoće: 2°C
Tačka rose: 0°C
Vlažnost: 75%
Pritisak: 1017 hPa
Pregled: Vedro
Vidljivost: greater than 10 km
2020/04/04 05:30 LRTR 040530Z 33004KT 300V360 CAVOK 04/00 Q1017
 
LRCV - Craiova, Romania
Ažurirano: 04/04/2020 07:30
Vedro
Vedro
 Pravac vetra SI
Vetar: SI 7 km/h
Temperatura: 5°C
Osećaj hladnoće: 3°C
Tačka rose: 4°C
Vlažnost: 93%
Pritisak: 1016 hPa
Pregled: Vedro
Vidljivost: greater than 10 km
2020/04/04 05:30 LRCV 040530Z 04004KT CAVOK 05/04 Q1016
LBSF - Sofia, Bulgaria
Ažurirano: 04/04/2020 07:30
Oblačno
Oblačno
 Pravac vetra JJI
Vetar: JJI 11 km/h
Temperatura: 6°C
Osećaj hladnoće: 4°C
Tačka rose: 4°C
Vlažnost: 87%
Pritisak: 1015 hPa
Oblaci: Oblačno
Vidljivost: 10 km
Cloud details: Few Clouds 1280 m
Oblačno 2164 m
2020/04/04 05:30 LBSF 040530Z 15006KT 9999 FEW042 OVC071 06/04 Q1015 NOSIG
LWSK - Skoplje, Makedonija
Ažurirano: 04/04/2020 08:00
Slaba kiša, Oblačno
Slaba kiša, Oblačno
 Pravac vetra calm
Vetar: Tišina
Temperatura: 6°C
Tačka rose: 5°C
Vlažnost: 93%
Pritisak: 1016 hPa
Pregled: Light Rain
Oblaci: Oblačno
Vidljivost: 6 km
Cloud details: Partly Cloudy 305 m
Oblačno 1219 m
2020/04/04 06:00 LWSK 040600Z 00000KT 6000 -RA SCT010 OVC040 06/05 Q1016 NOSIG
 
LYPG - Podgorica, Crna Gora
Ažurirano: 04/04/2020 07:30
Mostly Cloudy
Mostly Cloudy
 Pravac vetra S
Vetar: S 20 km/h
Temperatura: 14°C
Tačka rose: -1°C
Vlažnost: 36%
Pritisak: 1012 hPa
Oblaci: Mostly Cloudy
Vidljivost: 10 km
Cloud details: Mostly Cloudy 2438 m
2020/04/04 05:30 LYPG 040530Z 01011KT 240V050 9999 BKN080 14/M01 Q1012 NOSIG
LQSA - Sarajevo, Bosna i Hercegovina
Ažurirano: 04/04/2020 07:30
Vedro
Vedro
 Pravac vetra JI
Vetar: JI 6 km/h
Temperatura: 1°C
Tačka rose: -1°C
Vlažnost: 87%
Pritisak: 1018 hPa
Pregled: Vedro
Vidljivost: greater than 10 km
2020/04/04 05:30 LQSA 040530Z 13003KT 100V180 CAVOK 01/M01 Q1018
LDOS - Osijek, Hrvatksa
Ažurirano: 04/04/2020 07:30
Vedro
Vedro
 Pravac vetra S
Vetar: S 17 km/h
Temperatura: 4°C
Osećaj hladnoće: 0°C
Tačka rose: -1°C
Vlažnost: 70%
Pritisak: 1019 hPa
Pregled: Vedro
Vidljivost: greater than 10 km
2020/04/04 05:30 LDOS 040530Z 35009KT CAVOK 04/M01 Q1019